Time;durP1;ratioP1;P1;durP2;ratioP2;P2;SDS_P1;SDS_P2;PMS_P1;PMS_P2;Temp;Humidity;BMP_temperature;BMP_pressure;BME280_temperature;BME280_humidity;BME280_pressure;Samples;Min_cycle;Max_cycle;Signal;HPM_P1;HPM_P2
2023/01/17 00:01:15;;;;;;;2.03;1.83;;;0.30;99.90;;;;;;5059715;28;21005;-50
2023/01/17 00:11:59;;;;;;;1.40;1.10;;;0.50;99.90;;;;;;5021194;28;20430;-51
2023/01/17 00:14:27;;;;;;;2.03;1.50;;;0.70;99.90;;;;;;5061280;28;20543;-52
2023/01/17 00:16:54;;;;;;;2.27;1.67;;;0.70;99.90;;;;;;5075537;28;20437;-50
2023/01/17 01:34:24;;;;;;;1.43;1.33;;;0.20;99.90;;;;;;5071879;28;20456;-50
2023/01/17 01:36:50;;;;;;;1.53;1.23;;;0.10;99.90;;;;;;5073551;28;20517;-48
2023/01/17 01:39:17;;;;;;;1.20;1.03;;;0.00;99.90;;;;;;5073205;28;20441;-50
2023/01/17 01:41:45;;;;;;;1.40;1.03;;;0.10;99.90;;;;;;5073845;28;20453;-49
2023/01/17 01:44:45;;;;;;;1.63;1.53;;;0.30;99.90;;;;;;5072735;28;20544;-49
2023/01/17 01:47:16;;;;;;;1.10;1.00;;;0.20;99.90;;;;;;5067988;28;20552;-51
2023/01/17 01:49:43;;;;;;;1.83;1.00;;;0.40;99.90;;;;;;5051772;28;20533;-49
2023/01/17 01:52:11;;;;;;;1.43;1.27;;;0.40;99.90;;;;;;5052089;28;20441;-50
2023/01/17 01:54:43;;;;;;;2.10;1.30;;;0.00;99.90;;;;;;5078822;22;20530;-47
2023/01/17 01:57:16;;;;;;;3.07;1.60;;;-0.10;99.90;;;;;;5076647;28;20436;-47
2023/01/17 01:59:48;;;;;;;4.90;2.33;;;-0.40;99.90;;;;;;5100123;28;20531;-50
2023/01/17 02:02:15;;;;;;;2.13;1.87;;;-0.30;99.90;;;;;;5091750;28;20492;-44
2023/01/17 02:04:44;;;;;;;2.70;1.63;;;-0.20;99.90;;;;;;5091080;28;20543;-47
2023/01/17 02:07:14;;;;;;;1.50;1.40;;;0.00;99.90;;;;;;5091737;28;20618;-48
2023/01/17 02:09:42;;;;;;;2.23;1.97;;;0.00;99.90;;;;;;5091504;28;20470;-47
2023/01/17 02:12:10;;;;;;;2.47;1.87;;;-0.10;99.90;;;;;;5091509;28;20479;-47
2023/01/17 02:14:37;;;;;;;1.87;1.70;;;-0.10;99.90;;;;;;5090469;28;20487;-47
2023/01/17 02:17:14;;;;;;;1.73;1.40;;;-0.10;99.90;;;;;;5090714;28;20478;-47
2023/01/17 02:20:25;;;;;;;0.90;0.70;;;0.00;99.90;;;;;;5088389;28;20475;-47
2023/01/17 02:23:33;;;;;;;1.50;1.33;;;0.00;99.90;;;;;;5073334;28;20502;-47
2023/01/17 02:26:26;;;;;;;3.10;2.00;;;0.20;99.90;;;;;;5090690;28;20555;-50
2023/01/17 02:29:12;;;;;;;1.83;1.43;;;0.40;99.90;;;;;;5089368;28;20539;-48
2023/01/17 02:31:47;;;;;;;2.50;2.30;;;-0.20;99.90;;;;;;5089181;28;20482;-48
2023/01/17 02:34:19;;;;;;;2.10;1.90;;;-0.80;99.90;;;;;;5101159;28;20837;-47
2023/01/17 02:36:51;;;;;;;3.73;2.40;;;-0.40;99.90;;;;;;5072283;28;20548;-47
2023/01/17 02:39:23;;;;;;;2.80;2.27;;;-0.40;99.90;;;;;;5090518;28;20534;-49
2023/01/17 02:41:54;;;;;;;1.63;1.53;;;-0.40;99.90;;;;;;5091255;28;20476;-47
2023/01/17 02:44:22;;;;;;;1.63;1.50;;;-0.30;99.90;;;;;;5090106;28;20496;-47
2023/01/17 02:46:53;;;;;;;2.03;1.50;;;-0.50;99.90;;;;;;5091117;28;20490;-47
2023/01/17 02:49:26;;;;;;;2.80;1.70;;;-0.30;99.90;;;;;;5103928;28;20523;-48
2023/01/17 02:52:13;;;;;;;3.63;1.73;;;-0.30;99.90;;;;;;5090696;28;21016;-47
2023/01/17 02:55:06;;;;;;;2.53;1.30;;;-0.10;99.90;;;;;;5085570;28;20495;-50
2023/01/17 02:57:47;;;;;;;1.73;1.47;;;-0.10;99.90;;;;;;5089646;28;20472;-47
2023/01/17 03:00:22;;;;;;;2.27;1.90;;;0.00;99.90;;;;;;5091881;28;20528;-47
2023/01/17 03:02:58;;;;;;;2.40;2.20;;;-0.10;99.90;;;;;;5094252;28;20450;-49
2023/01/17 03:05:31;;;;;;;2.30;1.83;;;-0.30;99.90;;;;;;5093308;28;20570;-50
2023/01/17 03:08:00;;;;;;;1.73;1.60;;;-0.10;99.90;;;;;;5093796;28;21000;-47
2023/01/17 03:10:27;;;;;;;1.60;1.37;;;-0.20;99.90;;;;;;5101721;28;20517;-44
2023/01/17 03:12:57;;;;;;;1.70;1.53;;;-0.10;99.90;;;;;;5093811;28;20522;-45
2023/01/17 03:15:24;;;;;;;1.40;1.23;;;0.00;99.90;;;;;;5100972;28;20538;-48
2023/01/17 03:17:56;;;;;;;1.87;1.20;;;-0.10;99.90;;;;;;5096309;28;20680;-47
2023/01/17 03:20:23;;;;;;;1.50;1.00;;;0.10;99.90;;;;;;5097749;28;20472;-48
2023/01/17 03:22:50;;;;;;;2.20;1.70;;;0.00;99.90;;;;;;5092096;28;20984;-44
2023/01/17 03:25:17;;;;;;;1.87;1.47;;;-0.30;99.90;;;;;;5092631;28;20546;-47
2023/01/17 03:27:44;;;;;;;1.97;1.77;;;-0.20;99.90;;;;;;5091989;28;20471;-47
2023/01/17 03:30:12;;;;;;;6.03;2.00;;;-0.30;99.90;;;;;;5093022;28;20892;-48
2023/01/17 03:32:39;;;;;;;5.87;2.27;;;-0.30;99.90;;;;;;5093455;28;20440;-48
2023/01/17 03:35:08;;;;;;;2.03;1.83;;;-0.20;99.90;;;;;;5091986;28;20495;-47
2023/01/17 03:37:35;;;;;;;3.30;2.07;;;-0.30;99.90;;;;;;5094316;28;20471;-47
2023/01/17 03:40:02;;;;;;;1.70;1.30;;;-0.60;99.90;;;;;;5095155;28;20542;-47
2023/01/17 03:42:29;;;;;;;3.03;1.73;;;-0.60;99.90;;;;;;5101184;28;20435;-49
2023/01/17 03:44:56;;;;;;;2.47;2.13;;;-0.80;99.90;;;;;;5109711;28;21091;-47
2023/01/17 03:47:23;;;;;;;2.00;1.60;;;-0.70;99.90;;;;;;5093259;28;20561;-48
2023/01/17 03:49:51;;;;;;;2.40;2.00;;;-0.70;99.90;;;;;;5093092;28;20514;-48
2023/01/17 03:52:19;;;;;;;2.80;2.03;;;-0.50;99.90;;;;;;5092836;28;20756;-47
2023/01/17 03:54:47;;;;;;;2.40;1.67;;;-0.70;99.90;;;;;;5091711;28;20551;-47
2023/01/17 03:57:14;;;;;;;2.10;1.60;;;-0.80;99.90;;;;;;5092394;28;20443;-47
2023/01/17 03:59:41;;;;;;;1.90;1.23;;;-0.60;99.90;;;;;;5092705;28;20523;-47
2023/01/17 04:02:08;;;;;;;4.27;1.70;;;-0.30;99.90;;;;;;5093238;28;20448;-47
2023/01/17 04:04:35;;;;;;;3.10;1.97;;;-0.10;99.90;;;;;;5093074;28;20877;-49
2023/01/17 04:07:02;;;;;;;1.43;1.33;;;-0.10;99.90;;;;;;5091996;28;20554;-48
2023/01/17 04:09:32;;;;;;;1.67;1.57;;;-0.40;99.90;;;;;;5100564;28;20524;-48
2023/01/17 04:11:59;;;;;;;1.83;1.20;;;-0.40;99.90;;;;;;5097583;28;20825;-48
2023/01/17 04:14:26;;;;;;;6.10;1.50;;;-0.30;99.90;;;;;;5091191;28;20503;-49
2023/01/17 04:16:53;;;;;;;1.77;1.30;;;-0.40;99.90;;;;;;5092033;28;20521;-47
2023/01/17 04:19:20;;;;;;;2.37;1.40;;;-0.30;99.90;;;;;;5090139;28;20476;-46
2023/01/17 04:21:47;;;;;;;2.83;1.80;;;-0.30;99.90;;;;;;5091905;28;20519;-47
2023/01/17 04:24:14;;;;;;;2.43;1.23;;;-0.50;99.90;;;;;;5092942;28;20499;-47
2023/01/17 04:26:42;;;;;;;2.60;0.97;;;-0.40;99.90;;;;;;5093520;28;20519;-47
2023/01/17 04:29:09;;;;;;;2.03;1.50;;;-0.30;99.90;;;;;;5093092;28;20531;-47
2023/01/17 04:31:36;;;;;;;3.70;1.60;;;-0.10;99.90;;;;;;5093035;28;20853;-50
2023/01/17 04:34:03;;;;;;;1.43;1.33;;;-0.10;99.90;;;;;;5091269;28;20487;-47
2023/01/17 04:36:30;;;;;;;1.07;0.90;;;-0.10;99.90;;;;;;5091329;28;20535;-47
2023/01/17 04:38:57;;;;;;;2.40;1.20;;;-0.10;99.90;;;;;;5091561;28;20483;-48
2023/01/17 04:41:24;;;;;;;3.03;1.33;;;-0.40;99.90;;;;;;5091600;28;20519;-48
2023/01/17 04:43:52;;;;;;;2.07;1.30;;;-0.60;99.90;;;;;;5091369;28;20538;-47
2023/01/17 04:46:19;;;;;;;3.30;2.30;;;-0.50;99.90;;;;;;5092174;28;21019;-48
2023/01/17 04:48:46;;;;;;;1.97;1.70;;;-0.30;99.90;;;;;;5112789;28;20579;-48
2023/01/17 04:51:12;;;;;;;1.70;1.30;;;-0.10;99.90;;;;;;5113744;28;20522;-47
2023/01/17 04:53:39;;;;;;;1.47;1.10;;;-0.10;99.90;;;;;;5094251;28;21009;-47
2023/01/17 04:56:07;;;;;;;1.40;0.90;;;-0.10;99.90;;;;;;5093501;28;20535;-47
2023/01/17 04:58:34;;;;;;;6.50;1.27;;;-0.30;99.90;;;;;;5107914;28;20475;-49
2023/01/17 05:01:03;;;;;;;1.50;1.00;;;0.00;99.90;;;;;;5113502;28;20967;-47
2023/01/17 05:03:30;;;;;;;1.10;1.00;;;-0.10;99.90;;;;;;5113456;28;20475;-49
2023/01/17 05:05:57;;;;;;;1.17;1.07;;;-0.30;99.90;;;;;;5113280;28;20881;-47
2023/01/17 05:08:24;;;;;;;2.03;1.60;;;-0.40;99.90;;;;;;5112746;28;21085;-47
2023/01/17 05:10:51;;;;;;;1.40;1.30;;;-0.50;99.90;;;;;;5099152;28;20448;-47
2023/01/17 05:13:18;;;;;;;3.20;1.20;;;-0.40;99.90;;;;;;5090798;28;20527;-48
2023/01/17 05:15:46;;;;;;;1.00;0.90;;;-0.30;99.90;;;;;;5090631;28;20622;-47
2023/01/17 05:18:15;;;;;;;1.43;1.27;;;-0.30;99.90;;;;;;5091049;28;20464;-47
2023/01/17 05:20:42;;;;;;;3.07;1.23;;;-0.40;99.90;;;;;;5089940;28;20518;-47
2023/01/17 05:23:10;;;;;;;1.57;1.20;;;-0.40;99.90;;;;;;5090556;28;20444;-47
2023/01/17 05:25:37;;;;;;;5.53;1.30;;;-0.50;99.90;;;;;;5104594;28;20546;-47
2023/01/17 05:28:04;;;;;;;1.90;1.00;;;-0.60;99.90;;;;;;5095896;28;20544;-47
2023/01/17 05:30:32;;;;;;;1.03;0.80;;;-0.70;99.90;;;;;;5091081;28;20525;-47
2023/01/17 05:32:59;;;;;;;1.40;1.13;;;-0.80;99.90;;;;;;5080524;28;20440;-47
2023/01/17 05:35:31;;;;;;;89.07;51.87;;;-0.80;99.90;;;;;;5094682;28;20546;-49
2023/01/17 05:37:58;;;;;;;9.30;7.37;;;-0.50;99.90;;;;;;5090696;28;20784;-49
2023/01/17 05:40:27;;;;;;;5.23;4.13;;;-0.50;99.90;;;;;;5093306;28;20479;-48
2023/01/17 05:42:58;;;;;;;4.43;3.60;;;-0.70;99.90;;;;;;5090677;28;20992;-47
2023/01/17 05:45:27;;;;;;;7.90;5.60;;;-1.20;99.90;;;;;;5090069;28;20518;-51
2023/01/17 05:47:56;;;;;;;11.10;7.87;;;-1.00;99.90;;;;;;5089412;28;20914;-47
2023/01/17 05:50:25;;;;;;;9.10;6.13;;;-0.80;99.90;;;;;;5090038;28;20448;-47
2023/01/17 05:52:55;;;;;;;4.60;3.60;;;-0.80;99.90;;;;;;5083961;28;20468;-44
2023/01/17 05:55:23;;;;;;;5.30;3.53;;;-0.90;99.90;;;;;;5090259;28;20570;-47
2023/01/17 05:57:50;;;;;;;4.17;3.53;;;-0.80;99.90;;;;;;5090413;28;20455;-49
2023/01/17 06:00:17;;;;;;;3.23;2.93;;;-1.00;99.90;;;;;;5090289;28;20489;-47
2023/01/17 06:02:45;;;;;;;3.60;3.30;;;-1.00;99.90;;;;;;5091577;28;20515;-47
2023/01/17 06:05:12;;;;;;;3.27;2.70;;;-1.00;99.90;;;;;;5088401;28;20491;-48
2023/01/17 06:07:40;;;;;;;2.43;1.80;;;-1.00;99.90;;;;;;5091969;28;20511;-47
2023/01/17 06:10:10;;;;;;;10.53;4.60;;;-1.00;99.90;;;;;;5091955;28;20468;-47
2023/01/17 06:12:37;;;;;;;4.20;3.77;;;-0.90;99.90;;;;;;5090506;28;20933;-47
2023/01/17 06:15:04;;;;;;;6.50;2.70;;;-0.70;99.90;;;;;;5089721;28;20490;-47
2023/01/17 06:17:31;;;;;;;3.40;3.07;;;-0.70;99.90;;;;;;5089445;28;20527;-47
2023/01/17 06:19:58;;;;;;;6.43;3.57;;;-0.70;99.90;;;;;;5090307;28;20530;-46
2023/01/17 06:22:25;;;;;;;5.47;2.83;;;-0.80;99.90;;;;;;5091553;28;20527;-47
2023/01/17 06:24:52;;;;;;;6.37;5.47;;;-1.10;99.90;;;;;;5088630;28;20515;-47
2023/01/17 06:27:20;;;;;;;6.47;5.40;;;-1.90;99.90;;;;;;5089344;28;20532;-45
2023/01/17 06:29:47;;;;;;;8.60;6.63;;;-2.10;99.90;;;;;;5089353;28;20530;-49
2023/01/17 06:32:14;;;;;;;6.17;5.33;;;-2.10;99.90;;;;;;5090689;28;20539;-47
2023/01/17 06:34:41;;;;;;;7.87;7.10;;;-1.90;99.90;;;;;;5089997;28;20542;-47
2023/01/17 06:37:08;;;;;;;6.17;5.33;;;-1.70;99.90;;;;;;5090325;28;20999;-49
2023/01/17 06:39:35;;;;;;;7.90;4.53;;;-1.70;99.90;;;;;;5089430;28;20518;-47
2023/01/17 06:42:02;;;;;;;3.93;3.40;;;-1.80;99.90;;;;;;5090726;28;20468;-49
2023/01/17 06:44:31;;;;;;;5.10;4.37;;;-1.60;99.90;;;;;;5090024;28;20996;-44
2023/01/17 06:46:57;;;;;;;4.50;3.77;;;-1.40;99.90;;;;;;5090722;28;21019;-47
2023/01/17 06:49:24;;;;;;;4.80;4.03;;;-1.30;99.90;;;;;;5090793;28;20510;-47
2023/01/17 06:51:51;;;;;;;5.20;3.70;;;-1.20;99.90;;;;;;5090970;28;20546;-47
2023/01/17 06:54:18;;;;;;;3.70;3.40;;;-1.20;99.90;;;;;;5090223;28;20883;-47
2023/01/17 06:56:45;;;;;;;2.83;2.60;;;-1.50;99.90;;;;;;5091228;28;20444;-49
2023/01/17 06:59:12;;;;;;;3.30;3.00;;;-1.60;99.90;;;;;;5091391;28;20538;-47
2023/01/17 07:01:40;;;;;;;7.93;4.90;;;-1.70;99.90;;;;;;5090756;28;20494;-46
2023/01/17 07:04:07;;;;;;;6.10;4.10;;;-1.50;99.90;;;;;;5090499;28;20547;-48
2023/01/17 07:06:36;;;;;;;4.53;4.10;;;-1.30;99.90;;;;;;5090475;28;20871;-48
2023/01/17 07:09:03;;;;;;;4.37;3.50;;;-1.20;99.90;;;;;;5091289;28;20550;-47
2023/01/17 07:11:31;;;;;;;4.77;3.70;;;-1.10;99.90;;;;;;5090386;28;20444;-49
2023/01/17 07:13:58;;;;;;;4.17;3.30;;;-1.00;99.90;;;;;;5088569;28;20539;-50
2023/01/17 07:16:25;;;;;;;5.07;2.90;;;-1.10;99.90;;;;;;5089643;28;20450;-47
2023/01/17 07:18:53;;;;;;;3.77;2.73;;;-1.20;99.90;;;;;;5089560;28;20868;-47
2023/01/17 07:21:21;;;;;;;3.63;2.47;;;-1.20;99.90;;;;;;5087816;28;20444;-48
2023/01/17 07:23:48;;;;;;;5.03;3.10;;;-1.10;99.90;;;;;;5089329;28;20444;-47
2023/01/17 07:26:16;;;;;;;4.13;3.67;;;-1.00;99.90;;;;;;5090269;28;20471;-50
2023/01/17 07:28:43;;;;;;;4.20;3.50;;;-1.00;99.90;;;;;;5091114;28;20518;-47
2023/01/17 07:31:10;;;;;;;4.03;3.30;;;-0.90;99.90;;;;;;5091138;28;20440;-48
2023/01/17 07:33:36;;;;;;;3.23;2.83;;;-0.90;99.90;;;;;;5090162;28;20444;-48
2023/01/17 07:36:07;;;;;;;4.23;2.77;;;-0.90;99.90;;;;;;5090626;28;20681;-49
2023/01/17 07:38:34;;;;;;;5.40;3.43;;;-0.80;99.90;;;;;;5091081;28;20467;-48
2023/01/17 07:41:03;;;;;;;4.93;3.77;;;-0.80;99.90;;;;;;5090523;28;20474;-49
2023/01/17 07:43:30;;;;;;;3.53;3.23;;;-0.70;99.90;;;;;;5090483;28;20485;-47
2023/01/17 07:45:57;;;;;;;5.03;4.40;;;-0.80;99.90;;;;;;5091338;28;20491;-48
2023/01/17 07:48:25;;;;;;;8.37;5.60;;;-0.70;99.90;;;;;;5094192;28;20486;-49
2023/01/17 07:50:53;;;;;;;6.83;6.10;;;-0.60;99.90;;;;;;5094453;28;20534;-47
2023/01/17 07:53:22;;;;;;;8.10;6.00;;;-0.60;99.90;;;;;;5094114;28;20450;-48
2023/01/17 07:55:49;;;;;;;7.33;5.43;;;-0.50;99.90;;;;;;5149303;22;20569;-51
2023/01/17 07:58:16;;;;;;;9.00;6.60;;;-0.60;99.90;;;;;;5093721;28;20523;-51
2023/01/17 08:00:43;;;;;;;7.53;5.80;;;-0.60;99.90;;;;;;5094017;28;20564;-53
2023/01/17 08:03:13;;;;;;;8.67;5.87;;;-0.60;99.90;;;;;;5093309;28;20885;-52
2023/01/17 08:05:41;;;;;;;6.70;5.30;;;-0.50;99.90;;;;;;5093950;28;20835;-51
2023/01/17 08:08:08;;;;;;;7.90;6.60;;;-0.60;99.90;;;;;;5093864;28;20570;-51
2023/01/17 08:10:37;;;;;;;8.70;7.70;;;-0.70;99.90;;;;;;5094022;28;20531;-53
2023/01/17 08:13:04;;;;;;;9.37;6.83;;;-0.80;99.90;;;;;;5092728;28;20479;-54
2023/01/17 08:15:31;;;;;;;6.13;5.50;;;-1.10;99.90;;;;;;5093604;28;20496;-51
2023/01/17 08:17:57;;;;;;;8.83;6.17;;;-1.20;99.90;;;;;;5093408;28;20440;-51
2023/01/17 08:20:26;;;;;;;9.73;5.87;;;-0.90;99.90;;;;;;5092682;28;20960;-52
2023/01/17 08:22:54;;;;;;;31.13;17.83;;;-1.00;99.90;;;;;;5091889;28;20505;-53
2023/01/17 08:25:22;;;;;;;23.40;16.93;;;-1.10;99.90;;;;;;5093340;28;20557;-52
2023/01/17 08:27:50;;;;;;;11.73;9.97;;;-1.00;99.90;;;;;;5093518;28;20523;-52
2023/01/17 08:30:18;;;;;;;9.70;7.80;;;-0.70;99.90;;;;;;5093407;28;21033;-52
2023/01/17 08:32:45;;;;;;;7.10;4.87;;;-0.50;99.90;;;;;;5093545;28;20527;-54
2023/01/17 08:35:12;;;;;;;7.97;5.50;;;-0.40;99.90;;;;;;5092525;28;20546;-52
2023/01/17 08:37:39;;;;;;;11.33;7.90;;;-0.40;99.90;;;;;;5093320;28;20447;-53
2023/01/17 08:40:08;;;;;;;8.40;5.83;;;-0.40;99.90;;;;;;5093108;28;20944;-51
2023/01/17 08:42:38;;;;;;;11.60;6.40;;;-0.40;99.90;;;;;;5092378;28;20435;-52
2023/01/17 08:45:08;;;;;;;10.27;6.30;;;-0.30;99.90;;;;;;5091491;28;20464;-52
2023/01/17 08:47:36;;;;;;;15.43;9.90;;;-0.30;99.90;;;;;;5091441;28;20539;-51
2023/01/17 08:50:04;;;;;;;8.20;6.07;;;-0.10;99.90;;;;;;5091770;28;20755;-51
2023/01/17 08:52:31;;;;;;;4.65;4.15;;;0.10;99.90;;;;;;5091682;28;20494;-51
2023/01/17 08:54:58;;;;;;;6.73;4.20;;;0.10;99.90;;;;;;5091707;28;20328;-50
2023/01/17 08:57:25;;;;;;;7.90;6.47;;;0.00;99.90;;;;;;5092760;28;20471;-51
2023/01/17 08:59:52;;;;;;;7.63;6.30;;;0.10;99.90;;;;;;5092913;28;20522;-50
2023/01/17 09:02:22;;;;;;;6.57;5.53;;;0.00;99.90;;;;;;5092903;28;20495;-51
2023/01/17 09:04:50;;;;;;;12.80;9.67;;;0.20;99.90;;;;;;5091867;28;20475;-52
2023/01/17 09:07:19;;;;;;;22.17;15.27;;;-0.10;99.90;;;;;;5092663;28;21003;-50
2023/01/17 09:09:45;;;;;;;11.93;7.80;;;-0.10;99.90;;;;;;5092724;28;20608;-50
2023/01/17 09:12:13;;;;;;;9.83;8.40;;;-0.10;99.90;;;;;;5092898;28;20471;-51
2023/01/17 09:14:40;;;;;;;10.97;7.27;;;-0.10;99.90;;;;;;5091566;28;20491;-51
2023/01/17 09:17:06;;;;;;;10.57;6.70;;;0.00;99.90;;;;;;5092457;28;20531;-50
2023/01/17 09:19:37;;;;;;;7.97;6.80;;;0.10;99.90;;;;;;5090807;28;20550;-50
2023/01/17 09:22:05;;;;;;;7.07;5.17;;;0.10;99.90;;;;;;5092038;28;20809;-51
2023/01/17 09:24:32;;;;;;;7.77;5.57;;;0.20;99.90;;;;;;5091457;28;20472;-50
2023/01/17 09:26:59;;;;;;;5.50;4.90;;;0.20;99.90;;;;;;5092381;28;20447;-51
2023/01/17 09:29:26;;;;;;;6.37;5.47;;;0.20;99.90;;;;;;5092324;28;20582;-50
2023/01/17 09:31:53;;;;;;;5.20;4.67;;;0.10;99.90;;;;;;5092100;28;20543;-51
2023/01/17 09:34:20;;;;;;;6.83;4.27;;;-0.10;99.90;;;;;;5091677;28;20479;-50
2023/01/17 09:36:48;;;;;;;4.00;3.37;;;-0.20;99.90;;;;;;5092204;28;20524;-50
2023/01/17 09:39:15;;;;;;;5.60;3.17;;;0.10;99.90;;;;;;5092027;28;20531;-51
2023/01/17 09:41:51;;;;;;;3.17;2.40;;;0.30;99.90;;;;;;5091406;28;20468;-50
2023/01/17 09:44:25;;;;;;;8.07;6.30;;;0.30;99.90;;;;;;5091204;28;20439;-50
2023/01/17 09:46:55;;;;;;;8.67;7.30;;;0.30;99.90;;;;;;5091139;28;20480;-50
2023/01/17 09:49:32;;;;;;;13.50;10.77;;;0.40;99.90;;;;;;5091756;28;20558;-51
2023/01/17 09:52:01;;;;;;;10.07;7.63;;;0.20;99.90;;;;;;5091768;28;20475;-50
2023/01/17 09:54:34;;;;;;;9.23;6.60;;;-0.30;99.90;;;;;;5091327;28;20554;-50
2023/01/17 09:57:04;;;;;;;7.13;5.70;;;0.00;99.90;;;;;;5091721;28;20482;-50
2023/01/17 09:59:41;;;;;;;6.80;5.77;;;0.10;99.90;;;;;;5091578;28;21029;-50
2023/01/17 10:02:34;;;;;;;7.10;5.67;;;0.00;99.90;;;;;;5091731;28;20518;-50
2023/01/17 10:05:22;;;;;;;5.87;5.27;;;-0.10;99.90;;;;;;5090903;28;20660;-52
2023/01/17 10:08:07;;;;;;;6.90;5.60;;;-0.10;99.90;;;;;;5091670;28;20523;-50
2023/01/17 10:10:40;;;;;;;4.87;4.37;;;0.20;99.90;;;;;;5091550;28;20476;-50
2023/01/17 10:13:23;;;;;;;9.77;7.30;;;0.30;99.90;;;;;;5091053;28;20451;-51
2023/01/17 10:16:12;;;;;;;7.23;4.20;;;0.60;99.90;;;;;;5091167;28;20471;-50
2023/01/17 10:19:19;;;;;;;9.10;5.10;;;0.60;99.90;;;;;;5091468;28;20542;-50
2023/01/17 10:22:03;;;;;;;5.53;4.00;;;0.30;99.90;;;;;;5031512;28;21032;-50
2023/01/17 10:25:04;;;;;;;4.63;4.17;;;0.30;99.90;;;;;;5090664;28;20680;-50
2023/01/17 10:27:36;;;;;;;4.47;3.70;;;0.50;99.90;;;;;;5090943;28;20995;-50
2023/01/17 10:30:16;;;;;;;6.27;3.23;;;0.70;99.90;;;;;;5089686;28;20507;-50
2023/01/17 10:32:47;;;;;;;2.90;2.10;;;0.60;99.90;;;;;;5089719;28;20519;-50
2023/01/17 10:35:21;;;;;;;3.20;2.90;;;0.70;99.90;;;;;;5088933;28;20464;-52
2023/01/17 10:37:49;;;;;;;2.57;2.07;;;0.80;99.90;;;;;;5089692;28;20466;-50
2023/01/17 10:40:24;;;;;;;3.30;2.20;;;0.90;99.90;;;;;;5089558;28;20460;-50
2023/01/17 10:42:56;;;;;;;3.40;2.13;;;1.00;99.90;;;;;;5089415;28;20482;-52
2023/01/17 10:45:27;;;;;;;3.10;2.23;;;1.10;99.90;;;;;;5090823;28;20493;-49
2023/01/17 10:48:01;;;;;;;14.50;7.90;;;1.30;99.90;;;;;;5091158;28;20532;-51
2023/01/17 10:50:32;;;;;;;7.10;4.10;;;1.40;99.90;;;;;;5091254;28;20568;-50
2023/01/17 10:53:08;;;;;;;6.60;4.30;;;1.50;99.90;;;;;;5090388;28;20967;-50
2023/01/17 10:55:42;;;;;;;5.40;4.03;;;1.20;99.90;;;;;;5090744;28;20502;-50
2023/01/17 10:58:12;;;;;;;5.30;3.73;;;1.40;99.90;;;;;;5091057;28;20482;-51
2023/01/17 11:00:43;;;;;;;5.73;3.80;;;1.50;99.90;;;;;;5091125;28;20933;-50
2023/01/17 11:03:12;;;;;;;7.43;3.47;;;1.60;99.90;;;;;;5089266;28;21005;-51
2023/01/17 11:05:41;;;;;;;3.40;2.70;;;1.60;99.90;;;;;;5089052;28;20555;-51
2023/01/17 11:08:10;;;;;;;4.10;3.50;;;1.60;99.90;;;;;;5089363;28;20963;-50
2023/01/17 11:10:43;;;;;;;3.40;2.93;;;1.60;99.90;;;;;;5089446;28;20566;-52
2023/01/17 11:13:24;;;;;;;4.00;3.33;;;1.20;99.90;;;;;;5088737;28;20448;-51
2023/01/17 11:15:56;;;;;;;6.00;2.77;;;0.80;99.90;;;;;;5088987;28;20495;-51
2023/01/17 11:18:26;;;;;;;3.37;2.57;;;0.90;99.90;;;;;;5086928;28;20448;-52
2023/01/17 11:21:10;;;;;;;4.20;3.50;;;0.90;99.90;;;;;;5090456;28;20440;-52
2023/01/17 11:23:40;;;;;;;3.30;3.00;;;1.10;99.90;;;;;;5091669;28;20427;-51
2023/01/17 11:26:12;;;;;;;3.90;3.37;;;1.00;99.90;;;;;;5093477;28;20456;-50
2023/01/17 11:28:40;;;;;;;5.80;3.83;;;0.90;99.90;;;;;;5092434;28;20467;-51
2023/01/17 11:31:24;;;;;;;5.17;4.20;;;1.00;99.90;;;;;;5092067;28;20516;-49
2023/01/17 11:34:05;;;;;;;6.13;4.07;;;0.80;99.90;;;;;;5088446;28;20543;-51
2023/01/17 11:36:32;;;;;;;7.10;3.40;;;0.90;99.90;;;;;;5089529;28;20535;-52
2023/01/17 11:39:02;;;;;;;3.80;3.50;;;0.90;99.90;;;;;;5091682;28;20490;-50
2023/01/17 11:41:35;;;;;;;3.70;3.23;;;1.00;99.90;;;;;;5088447;28;20438;-50
2023/01/17 11:44:03;;;;;;;3.70;3.03;;;1.20;99.90;;;;;;5090575;28;20538;-50
2023/01/17 11:46:31;;;;;;;7.03;5.40;;;1.40;99.90;;;;;;5089064;28;20443;-50
2023/01/17 11:49:00;;;;;;;5.23;3.67;;;1.50;99.90;;;;;;5092040;28;20448;-50
2023/01/17 11:51:29;;;;;;;7.00;3.70;;;1.10;99.90;;;;;;5093041;28;20498;-50
2023/01/17 11:54:16;;;;;;;3.43;3.00;;;1.00;99.90;;;;;;5093489;28;20478;-49
2023/01/17 11:56:45;;;;;;;4.50;3.27;;;0.90;99.90;;;;;;5094396;28;20527;-49
2023/01/17 11:59:30;;;;;;;3.80;3.13;;;1.10;99.90;;;;;;5094370;28;20861;-50
2023/01/17 12:02:33;;;;;;;3.60;3.30;;;1.20;99.90;;;;;;5094188;28;20880;-49
2023/01/17 12:05:16;;;;;;;6.17;3.53;;;1.40;99.90;;;;;;5093110;28;20921;-51
2023/01/17 12:07:52;;;;;;;4.10;3.60;;;1.30;99.90;;;;;;5093780;28;20944;-50
2023/01/17 12:10:25;;;;;;;8.40;3.30;;;1.20;99.90;;;;;;5092923;28;20518;-50
2023/01/17 12:15:55;;;;;;;3.23;2.30;;;1.10;99.90;;;;;;5092126;28;20710;-50
2023/01/17 12:18:38;;;;;;;4.37;2.50;;;1.30;99.90;;;;;;5092390;28;20475;-50
2023/01/17 12:21:17;;;;;;;3.60;3.30;;;1.20;99.90;;;;;;5091478;28;20465;-50
2023/01/17 12:24:05;;;;;;;3.67;3.20;;;1.50;99.90;;;;;;5091297;28;20932;-50
2023/01/17 12:26:38;;;;;;;5.10;4.50;;;1.80;99.90;;;;;;5093638;28;20858;-51
2023/01/17 12:29:34;;;;;;;3.97;3.50;;;2.00;99.90;;;;;;5093944;28;20476;-50
2023/01/17 12:32:34;;;;;;;3.30;2.07;;;2.20;99.90;;;;;;5092798;28;20468;-50
2023/01/17 12:35:07;;;;;;;2.50;1.80;;;2.20;99.90;;;;;;5044728;28;20496;-51
2023/01/17 12:37:38;;;;;;;3.30;1.90;;;2.10;99.90;;;;;;5093453;28;20478;-50
2023/01/17 12:40:16;;;;;;;3.00;1.60;;;1.70;99.90;;;;;;5093253;28;20526;-49
2023/01/17 12:42:48;;;;;;;2.30;2.10;;;1.60;99.90;;;;;;5092550;28;20439;-50
2023/01/17 12:45:22;;;;;;;4.30;1.70;;;1.70;99.90;;;;;;5092780;28;20547;-49
2023/01/17 12:47:57;;;;;;;2.50;1.40;;;1.60;99.90;;;;;;5093288;28;20881;-51
2023/01/17 12:50:31;;;;;;;2.47;1.67;;;1.60;99.90;;;;;;5093617;28;20515;-50
2023/01/17 12:53:03;;;;;;;1.70;1.23;;;1.70;99.90;;;;;;5092353;28;20456;-50
2023/01/17 12:55:37;;;;;;;3.43;2.07;;;1.90;99.90;;;;;;5093062;28;20475;-51
2023/01/17 12:58:10;;;;;;;2.10;1.90;;;2.00;99.90;;;;;;5093228;28;20532;-51
2023/01/17 13:00:39;;;;;;;2.97;2.47;;;2.10;99.90;;;;;;5092634;28;21013;-50
2023/01/17 13:03:15;;;;;;;4.37;2.80;;;2.30;99.90;;;;;;5092199;28;20472;-50
2023/01/17 13:05:47;;;;;;;3.30;2.10;;;2.40;99.90;;;;;;5092580;28;20888;-51
2023/01/17 13:08:23;;;;;;;5.87;2.50;;;2.40;99.90;;;;;;5092738;28;20939;-51
2023/01/17 13:10:54;;;;;;;4.47;2.83;;;2.60;99.90;;;;;;5092547;28;20476;-50
2023/01/17 13:13:24;;;;;;;3.40;2.40;;;2.60;99.90;;;;;;5091921;28;20979;-50
2023/01/17 13:15:55;;;;;;;7.50;4.80;;;2.60;99.90;;;;;;5092152;28;20522;-50
2023/01/17 13:18:25;;;;;;;4.50;3.73;;;2.50;99.90;;;;;;5092528;28;20535;-52
2023/01/17 13:21:08;;;;;;;2.77;2.40;;;2.60;99.90;;;;;;5091463;28;20479;-50
2023/01/17 13:23:48;;;;;;;3.07;2.77;;;2.70;99.90;;;;;;5091197;28;20531;-50
2023/01/17 13:26:24;;;;;;;3.37;2.70;;;2.50;99.90;;;;;;5092162;28;20900;-51
2023/01/17 13:29:03;;;;;;;2.73;2.30;;;2.50;99.90;;;;;;5092603;28;20472;-49
2023/01/17 13:31:46;;;;;;;5.97;4.10;;;2.50;99.90;;;;;;5092263;28;20566;-51
2023/01/17 13:34:40;;;;;;;7.13;4.17;;;2.50;99.90;;;;;;5091551;28;20445;-51
2023/01/17 13:37:37;;;;;;;5.00;3.60;;;2.50;99.90;;;;;;5092063;28;20527;-49
2023/01/17 13:40:28;;;;;;;4.17;3.67;;;2.60;99.90;;;;;;5092156;28;20432;-52
2023/01/17 13:42:58;;;;;;;4.53;2.40;;;2.70;99.90;;;;;;5090753;28;20531;-54
2023/01/17 13:45:27;;;;;;;3.33;3.03;;;2.70;99.90;;;;;;5091336;28;21044;-50
2023/01/17 13:48:24;;;;;;;7.73;4.67;;;2.80;99.90;;;;;;5092214;28;20484;-51
2023/01/17 13:50:54;;;;;;;4.73;2.87;;;2.90;99.90;;;;;;5091498;28;20526;-50
2023/01/17 13:53:48;;;;;;;4.60;3.07;;;2.90;99.90;;;;;;5091354;28;20836;-51
2023/01/17 13:56:33;;;;;;;3.60;2.70;;;2.80;99.90;;;;;;5113400;22;20894;-48
2023/01/17 13:59:28;;;;;;;2.20;1.93;;;2.70;99.90;;;;;;5051852;28;20488;-48
2023/01/17 14:01:55;;;;;;;3.50;1.67;;;2.80;99.90;;;;;;5052123;28;20515;-46
2023/01/17 14:04:25;;;;;;;2.33;2.00;;;2.80;99.90;;;;;;5051655;28;20538;-46
2023/01/17 14:06:59;;;;;;;3.93;2.20;;;2.80;99.90;;;;;;5051660;28;20546;-47
2023/01/17 14:09:37;;;;;;;3.13;2.30;;;2.40;99.90;;;;;;5051607;28;20503;-46
2023/01/17 14:12:25;;;;;;;5.97;2.50;;;2.50;99.90;;;;;;5051405;28;20443;-48
2023/01/17 14:14:55;;;;;;;3.23;2.40;;;2.20;99.90;;;;;;5050398;28;20469;-48
2023/01/17 14:17:57;;;;;;;2.97;2.20;;;2.30;99.90;;;;;;5051073;28;20449;-49
2023/01/17 14:20:49;;;;;;;3.80;2.60;;;2.50;99.90;;;;;;5049806;28;20424;-46
2023/01/17 14:23:50;;;;;;;3.43;3.10;;;2.40;99.90;;;;;;5048861;28;20543;-50
2023/01/17 14:26:37;;;;;;;4.90;3.20;;;2.40;99.90;;;;;;5047258;28;20520;-49
2023/01/17 14:29:57;;;;;;;6.43;2.67;;;2.50;99.90;;;;;;5049699;28;20534;-48
2023/01/17 14:32:27;;;;;;;6.40;2.70;;;2.50;99.90;;;;;;5050718;28;20469;-46
2023/01/17 14:34:56;;;;;;;4.57;3.13;;;2.60;99.90;;;;;;5050458;28;20494;-47
2023/01/17 14:37:41;;;;;;;3.80;3.03;;;2.50;99.90;;;;;;5051295;28;20489;-47
2023/01/17 14:40:19;;;;;;;3.97;2.67;;;2.30;99.90;;;;;;5051067;28;20517;-47
2023/01/17 14:42:49;;;;;;;3.77;3.33;;;2.30;99.90;;;;;;5050968;28;20437;-47